Comunidad Los Pinos, Puerto Rico
Current Conditions -  °F | °C
As of 10:50 PM on Thursday 18 Dec 2014 (Local Time) from TJBQ Reporting Station
Overcast Overcast  
Wind Chill: 73°   Ceiling: 2100
Heat Index: 73°   Visibility: 5mi
Dew Point: 70°   Wind: 22mph
Humidity: 88%   Direction: 90°E
Pressure: 30.04"   Gusts: 26mph
Location:  18.4951°N, 67.0273°W
Report Text: TJBQ 190250Z 09019G23KT 5SM SCT007 BKN021 OVC036 23/21 A3004 RA RMK RWY08 ATIS G
Loading
Personal Weather Stations






























Interactive Weather Map New forecast layout! Learn more

10-Day Weather Forecast

Advertisements
Track Severe Weather on mobile